createdAt,value
2016-08-23T00:00:32.515Z,0
2016-08-23T00:01:32.519Z,0
2016-08-23T00:02:32.557Z,0
2016-08-23T00:03:32.688Z,0
2016-08-23T00:04:32.626Z,0
2016-08-23T00:05:32.748Z,0
2016-08-23T00:06:32.673Z,0
2016-08-23T00:07:32.682Z,0
2016-08-23T00:08:32.712Z,0
2016-08-23T00:09:32.733Z,0
2016-08-23T00:10:32.762Z,0
2016-08-23T00:11:32.790Z,0
2016-08-23T00:12:32.929Z,0
2016-08-23T00:13:32.843Z,0
2016-08-23T00:14:32.872Z,0
2016-08-23T00:15:32.897Z,0
2016-08-23T00:16:32.927Z,0
2016-08-23T00:17:33.729Z,0
2016-08-23T00:18:33.683Z,0
2016-08-23T00:19:33.003Z,0
2016-08-23T00:20:33.185Z,0
2016-08-23T00:21:33.758Z,0
2016-08-23T00:22:33.090Z,0
2016-08-23T00:23:33.112Z,0
2016-08-23T00:24:33.133Z,0
2016-08-23T00:25:33.163Z,0
2016-08-23T00:26:33.902Z,0
2016-08-23T00:27:33.322Z,0
2016-08-23T00:28:33.296Z,0
2016-08-23T00:29:33.972Z,0
2016-08-23T00:30:33.413Z,0
2016-08-23T00:31:33.518Z,0
2016-08-23T00:32:33.622Z,0
2016-08-23T00:33:33.376Z,0
2016-08-23T00:34:33.422Z,0
2016-08-23T00:35:33.550Z,0
2016-08-23T00:36:33.453Z,0
2016-08-23T00:37:34.186Z,0
2016-08-23T00:38:34.515Z,0
2016-08-23T00:39:34.711Z,0
2016-08-23T00:40:33.555Z,0
2016-08-23T00:41:34.285Z,0
2016-08-23T00:42:33.605Z,0
2016-08-23T00:43:33.752Z,0
2016-08-23T00:44:33.770Z,0
2016-08-23T00:45:33.690Z,0
2016-08-23T00:46:33.718Z,0
2016-08-23T00:47:33.739Z,0
2016-08-23T00:48:33.775Z,0
2016-08-23T00:49:34.595Z,0
2016-08-23T00:50:34.061Z,0
2016-08-23T00:51:33.846Z,0
2016-08-23T00:52:33.954Z,0
2016-08-23T00:53:33.899Z,0
2016-08-23T00:54:33.923Z,0
2016-08-23T00:55:33.949Z,0
2016-08-23T00:56:33.991Z,0
2016-08-23T00:57:34.126Z,0
2016-08-23T00:58:34.052Z,0
2016-08-23T00:59:34.053Z,0
2016-08-23T01:00:34.076Z,0
2016-08-23T01:01:34.179Z,0
2016-08-23T01:02:34.837Z,0
2016-08-23T01:03:34.163Z,0
2016-08-23T01:04:34.185Z,0
2016-08-23T01:05:34.217Z,0
2016-08-23T01:06:34.243Z,0
2016-08-23T01:07:34.260Z,0
2016-08-23T01:08:34.310Z,0
2016-08-23T01:09:34.326Z,0
2016-08-23T01:10:35.154Z,0
2016-08-23T01:11:34.482Z,0
2016-08-23T01:12:34.572Z,0
2016-08-23T01:13:34.535Z,0
2016-08-23T01:14:34.468Z,0
2016-08-23T01:15:34.597Z,0
2016-08-23T01:16:34.614Z,0
2016-08-23T01:17:34.640Z,0
2016-08-23T01:18:34.770Z,0
2016-08-23T01:19:34.676Z,0
2016-08-23T01:20:34.603Z,0
2016-08-23T01:21:35.447Z,0
2016-08-23T01:22:34.661Z,0
2016-08-23T01:23:34.686Z,0
2016-08-23T01:24:34.821Z,0
2016-08-23T01:25:34.845Z,0
2016-08-23T01:26:34.761Z,0
2016-08-23T01:27:34.786Z,0
2016-08-23T01:28:34.822Z,0
2016-08-23T01:29:34.920Z,0
2016-08-23T01:30:34.868Z,0
2016-08-23T01:31:34.896Z,0
2016-08-23T01:32:34.918Z,0
2016-08-23T01:33:34.943Z,0
2016-08-23T01:34:35.794Z,0
2016-08-23T01:35:35.000Z,0
2016-08-23T01:36:35.040Z,0
2016-08-23T01:37:35.053Z,0
2016-08-23T01:38:35.859Z,0
2016-08-23T01:39:35.100Z,0
2016-08-23T01:40:35.133Z,0
2016-08-23T01:41:35.188Z,0
2016-08-23T01:42:35.188Z,0
2016-08-23T01:43:35.913Z,0
2016-08-23T01:44:35.350Z,0
2016-08-23T01:45:35.288Z,0
2016-08-23T01:46:35.292Z,0
2016-08-23T01:47:35.427Z,0
2016-08-23T01:48:35.451Z,0
2016-08-23T01:49:36.538Z,0
2016-08-23T01:50:35.393Z,0
2016-08-23T01:51:35.530Z,0
2016-08-23T01:52:35.449Z,0
2016-08-23T01:53:35.462Z,0
2016-08-23T01:54:36.401Z,0
2016-08-23T01:55:35.643Z,0
2016-08-23T01:56:35.656Z,0
2016-08-23T01:58:35.598Z,0
2016-08-23T01:59:35.749Z,0
2016-08-23T02:00:35.851Z,0
2016-08-23T02:01:36.581Z,0
2016-08-23T02:02:35.819Z,0
2016-08-23T02:03:35.897Z,0
2016-08-23T02:04:35.838Z,0
2016-08-23T02:05:35.777Z,0
2016-08-23T02:06:35.869Z,0
2016-08-23T02:07:35.845Z,0
2016-08-23T02:08:36.045Z,0
2016-08-23T02:09:35.902Z,0
2016-08-23T02:10:36.023Z,0
2016-08-23T02:11:35.988Z,0
2016-08-23T02:12:36.829Z,0
2016-08-23T02:13:35.985Z,0
2016-08-23T02:14:36.013Z,0
2016-08-23T02:15:36.158Z,0
2016-08-23T02:16:36.072Z,0
2016-08-23T02:17:36.103Z,0
2016-08-23T02:18:36.247Z,0
2016-08-23T02:19:36.142Z,0
2016-08-23T02:20:36.315Z,0
2016-08-23T02:21:36.272Z,0
2016-08-23T02:22:36.224Z,0
2016-08-23T02:23:36.247Z,0
2016-08-23T02:24:36.283Z,0
2016-08-23T02:25:36.393Z,0
2016-08-23T02:26:36.319Z,0
2016-08-23T02:27:36.345Z,0
2016-08-23T02:28:36.509Z,0
2016-08-23T02:29:36.517Z,0
2016-08-23T02:30:36.607Z,0
2016-08-23T02:31:36.455Z,0
2016-08-23T02:32:36.548Z,0
2016-08-23T02:33:36.619Z,0
2016-08-23T02:34:36.526Z,0
2016-08-23T02:35:36.559Z,0
2016-08-23T02:36:37.284Z,0
2016-08-23T02:37:36.616Z,0
2016-08-23T02:38:36.634Z,0
2016-08-23T02:39:36.770Z,0
2016-08-23T02:40:36.683Z,0
2016-08-23T02:41:36.822Z,0
2016-08-23T02:42:36.744Z,0
2016-08-23T02:43:37.559Z,0
2016-08-23T02:44:36.786Z,0
2016-08-23T02:45:36.825Z,0
2016-08-23T02:46:36.842Z,0
2016-08-23T02:47:36.861Z,0
2016-08-23T02:48:37.689Z,0
2016-08-23T02:49:36.918Z,0
2016-08-23T02:50:36.939Z,0
2016-08-23T02:51:36.975Z,0
2016-08-23T02:52:36.993Z,0
2016-08-23T02:53:37.129Z,0
2016-08-23T02:54:37.045Z,0
2016-08-23T02:55:37.074Z,0
2016-08-23T02:56:37.105Z,0
2016-08-23T02:57:37.243Z,0
2016-08-23T02:58:37.281Z,0
2016-08-23T02:59:37.174Z,0
2016-08-23T03:00:37.208Z,0
2016-08-23T03:01:37.226Z,0
2016-08-23T03:02:37.252Z,0
2016-08-23T03:03:37.278Z,0
2016-08-23T03:04:37.399Z,0
2016-08-23T03:05:37.321Z,0
2016-08-23T03:06:37.357Z,0
2016-08-23T03:07:38.094Z,0
2016-08-23T03:08:37.405Z,0
2016-08-23T03:09:37.596Z,0
2016-08-23T03:10:37.473Z,0
2016-08-23T03:11:37.485Z,0
2016-08-23T03:12:37.513Z,0
2016-08-23T03:13:37.538Z,0
2016-08-23T03:14:37.668Z,0
2016-08-23T03:15:37.584Z,0
2016-08-23T03:16:37.611Z,0
2016-08-23T03:17:38.341Z,0
2016-08-23T03:18:37.663Z,0
2016-08-23T03:19:37.690Z,0
2016-08-23T03:20:37.717Z,0
2016-08-23T03:21:37.740Z,0
2016-08-23T03:22:37.806Z,0
2016-08-23T03:23:37.793Z,0
2016-08-23T03:24:37.818Z,0
2016-08-23T03:25:37.849Z,0
2016-08-23T03:26:37.871Z,0
2016-08-23T03:27:37.991Z,0
2016-08-23T03:28:37.976Z,0
2016-08-23T03:29:37.952Z,0
2016-08-23T03:30:38.872Z,0
2016-08-23T03:31:38.712Z,0
2016-08-23T03:32:38.023Z,0
2016-08-23T03:33:38.044Z,0
2016-08-23T03:34:38.077Z,0
2016-08-23T03:35:38.100Z,0
2016-08-23T03:36:38.126Z,0
2016-08-23T03:37:38.151Z,0
2016-08-23T03:38:38.181Z,0
2016-08-23T03:39:38.202Z,0
2016-08-23T03:40:38.233Z,0
2016-08-23T03:41:38.269Z,0
2016-08-23T03:42:38.557Z,0
2016-08-23T03:43:38.557Z,0
2016-08-23T03:44:39.033Z,0
2016-08-23T03:45:38.354Z,0
2016-08-23T03:46:38.383Z,0
2016-08-23T03:47:38.409Z,0
2016-08-23T03:48:38.435Z,4
2016-08-23T03:49:38.464Z,4
2016-08-23T03:50:38.481Z,0
2016-08-23T03:51:38.512Z,4
2016-08-23T03:52:38.532Z,4
2016-08-23T03:53:38.559Z,4
2016-08-23T03:54:38.586Z,4
2016-08-23T03:55:38.700Z,4
2016-08-23T03:56:38.636Z,8
2016-08-23T03:57:38.656Z,4
2016-08-23T03:58:38.686Z,8
2016-08-23T03:59:38.712Z,8
2016-08-23T04:00:38.741Z,12
2016-08-23T04:01:38.753Z,8
2016-08-23T04:02:38.789Z,12
2016-08-23T04:03:38.925Z,12
2016-08-23T04:04:38.833Z,12
2016-08-23T04:05:38.863Z,16
2016-08-23T04:06:38.890Z,16
2016-08-23T04:07:39.018Z,24
2016-08-23T04:08:39.033Z,24
2016-08-23T04:09:38.965Z,24
2016-08-23T04:10:39.178Z,28
2016-08-23T04:11:39.013Z,28
2016-08-23T04:12:39.041Z,32
2016-08-23T04:13:39.907Z,32
2016-08-23T04:14:39.090Z,40
2016-08-23T04:15:39.120Z,40
2016-08-23T04:16:39.797Z,40
2016-08-23T04:17:39.167Z,44
2016-08-23T04:18:39.195Z,48
2016-08-23T04:19:39.331Z,52
2016-08-23T04:20:39.702Z,56
2016-08-23T04:21:39.268Z,56
2016-08-23T04:22:39.294Z,60
2016-08-23T04:23:40.498Z,64
2016-08-23T04:24:39.350Z,64
2016-08-23T04:25:39.369Z,68
2016-08-23T04:26:39.392Z,68
2016-08-23T04:27:39.432Z,76
2016-08-23T04:28:39.546Z,76
2016-08-23T04:29:39.469Z,80
2016-08-23T04:30:40.204Z,84
2016-08-23T04:31:39.517Z,84
2016-08-23T04:32:39.548Z,84
2016-08-23T04:33:40.277Z,88
2016-08-23T04:34:39.799Z,92
2016-08-23T04:35:40.333Z,92
2016-08-23T04:36:39.644Z,96
2016-08-23T04:37:39.676Z,100
2016-08-23T04:38:39.695Z,104
2016-08-23T04:39:39.722Z,104
2016-08-23T04:40:39.747Z,108
2016-08-23T04:41:40.516Z,112
2016-08-23T04:42:40.509Z,116
2016-08-23T04:43:39.826Z,120
2016-08-23T04:44:39.845Z,124
2016-08-23T04:45:39.872Z,128
2016-08-23T04:46:39.902Z,132
2016-08-23T04:47:39.936Z,136
2016-08-23T04:48:40.653Z,136
2016-08-23T04:49:39.976Z,140
2016-08-23T04:50:40.006Z,140
2016-08-23T04:51:40.028Z,144
2016-08-23T04:52:40.049Z,148
2016-08-23T04:53:40.083Z,152
2016-08-23T04:54:40.096Z,152
2016-08-23T04:55:40.135Z,156
2016-08-23T04:56:40.344Z,160
2016-08-23T04:57:40.300Z,160
2016-08-23T04:58:40.912Z,164
2016-08-23T04:59:40.220Z,168
2016-08-23T05:00:40.246Z,168
2016-08-23T05:01:40.272Z,172
2016-08-23T05:02:41.003Z,172
2016-08-23T05:03:40.321Z,172
2016-08-23T05:04:40.349Z,176
2016-08-23T05:05:40.385Z,176
2016-08-23T05:06:40.397Z,180
2016-08-23T05:07:40.420Z,180
2016-08-23T05:08:40.446Z,184
2016-08-23T05:09:40.467Z,188
2016-08-23T05:10:40.507Z,188
2016-08-23T05:11:40.535Z,188
2016-08-23T05:12:40.569Z,192
2016-08-23T05:13:40.565Z,192
2016-08-23T05:14:40.598Z,196
2016-08-23T05:15:40.620Z,196
2016-08-23T05:16:40.640Z,196
2016-08-23T05:17:40.669Z,200
2016-08-23T05:18:40.702Z,200
2016-08-23T05:19:40.725Z,204
2016-08-23T05:20:40.760Z,204
2016-08-23T05:21:40.764Z,200
2016-08-23T05:22:40.790Z,204
2016-08-23T05:23:40.932Z,204
2016-08-23T05:24:40.842Z,212
2016-08-23T05:25:41.071Z,208
2016-08-23T05:26:40.889Z,212
2016-08-23T05:27:40.916Z,212
2016-08-23T05:28:40.937Z,216
2016-08-23T05:29:41.025Z,216
2016-08-23T05:30:40.993Z,220
2016-08-23T05:31:41.717Z,220
2016-08-23T05:32:41.747Z,220
2016-08-23T05:33:41.184Z,224
2016-08-23T05:34:41.089Z,224
2016-08-23T05:35:41.112Z,228
2016-08-23T05:36:41.138Z,228
2016-08-23T05:37:41.870Z,232
2016-08-23T05:38:41.197Z,228
2016-08-23T05:39:41.213Z,228
2016-08-23T05:40:41.238Z,232
2016-08-23T05:41:41.267Z,232
2016-08-23T05:42:41.290Z,232
2016-08-23T05:43:41.316Z,236
2016-08-23T05:44:41.337Z,232
2016-08-23T05:45:41.366Z,232
2016-08-23T05:46:42.095Z,236
2016-08-23T05:47:41.412Z,236
2016-08-23T05:48:41.446Z,236
2016-08-23T05:49:41.467Z,240
2016-08-23T05:50:41.496Z,240
2016-08-23T05:51:41.787Z,240
2016-08-23T05:52:41.583Z,244
2016-08-23T05:53:41.555Z,244
2016-08-23T05:54:41.582Z,248
2016-08-23T05:55:41.610Z,248
2016-08-23T05:56:42.341Z,248
2016-08-23T05:57:41.659Z,252
2016-08-23T05:58:41.681Z,252
2016-08-23T05:59:41.717Z,248
2016-08-23T06:00:41.737Z,248
2016-08-23T06:01:41.758Z,252
2016-08-23T06:02:41.784Z,248
2016-08-23T06:03:41.832Z,252
2016-08-23T06:04:41.842Z,256
2016-08-23T06:05:41.858Z,252
2016-08-23T06:06:41.882Z,256
2016-08-23T06:07:41.905Z,256
2016-08-23T06:08:42.639Z,260
2016-08-23T06:09:41.955Z,264
2016-08-23T06:10:41.978Z,264
2016-08-23T06:11:42.817Z,268
2016-08-23T06:12:42.117Z,268
2016-08-23T06:13:42.056Z,268
2016-08-23T06:14:42.082Z,268
2016-08-23T06:15:42.109Z,268
2016-08-23T06:16:42.832Z,272
2016-08-23T06:17:42.153Z,272
2016-08-23T06:18:42.182Z,268
2016-08-23T06:19:42.203Z,268
2016-08-23T06:20:42.227Z,272
2016-08-23T06:21:42.252Z,272
2016-08-23T06:22:42.289Z,272
2016-08-23T06:23:42.517Z,272
2016-08-23T06:24:42.342Z,272
2016-08-23T06:25:42.360Z,268
2016-08-23T06:26:42.381Z,268
2016-08-23T06:27:42.401Z,272
2016-08-23T06:28:42.431Z,276
2016-08-23T06:29:42.450Z,272
2016-08-23T06:30:43.181Z,272
2016-08-23T06:31:42.505Z,272
2016-08-23T06:32:42.520Z,276
2016-08-23T06:33:42.545Z,276
2016-08-23T06:34:42.575Z,276
2016-08-23T06:35:42.596Z,276
2016-08-23T06:36:42.631Z,276
2016-08-23T06:37:42.653Z,276
2016-08-23T06:38:42.682Z,276
2016-08-23T06:39:43.404Z,276
2016-08-23T06:40:42.727Z,280
2016-08-23T06:41:42.759Z,276
2016-08-23T06:42:42.884Z,280
2016-08-23T06:43:43.676Z,284
2016-08-23T06:44:42.882Z,284
2016-08-23T06:45:42.845Z,284
2016-08-23T06:46:42.869Z,280
2016-08-23T06:47:42.898Z,284
2016-08-23T06:48:42.918Z,284
2016-08-23T06:49:42.950Z,288
2016-08-23T06:50:42.970Z,288
2016-08-23T06:51:42.997Z,288
2016-08-23T06:52:43.015Z,292
2016-08-23T06:53:43.800Z,292
2016-08-23T06:54:43.067Z,292
2016-08-23T06:55:43.097Z,292
2016-08-23T06:56:43.114Z,296
2016-08-23T06:57:43.352Z,296
2016-08-23T06:58:43.976Z,300
2016-08-23T06:59:43.194Z,296
2016-08-23T07:00:43.219Z,296
2016-08-23T07:01:43.950Z,300
2016-08-23T07:02:43.266Z,300
2016-08-23T07:03:43.291Z,300
2016-08-23T07:04:43.322Z,304
2016-08-23T07:05:43.345Z,300
2016-08-23T07:06:43.360Z,304
2016-08-23T07:07:43.415Z,304
2016-08-23T07:08:43.419Z,304
2016-08-23T07:09:43.443Z,304
2016-08-23T07:10:44.170Z,304
2016-08-23T07:11:43.494Z,304
2016-08-23T07:12:44.223Z,308
2016-08-23T07:13:43.541Z,308
2016-08-23T07:14:43.591Z,308
2016-08-23T07:15:43.590Z,308
2016-08-23T07:16:43.613Z,308
2016-08-23T07:17:43.744Z,312
2016-08-23T07:18:43.895Z,312
2016-08-23T07:19:43.908Z,316
2016-08-23T07:20:44.064Z,316
2016-08-23T07:21:43.928Z,316
2016-08-23T07:22:43.930Z,320
2016-08-23T07:23:43.936Z,316
2016-08-23T07:24:43.948Z,320
2016-08-23T07:25:44.664Z,316
2016-08-23T07:26:43.966Z,320
2016-08-23T07:27:44.109Z,320
2016-08-23T07:28:44.817Z,320
2016-08-23T07:29:44.123Z,316
2016-08-23T07:30:44.773Z,316
2016-08-23T07:31:44.774Z,320
2016-08-23T07:32:44.103Z,320
2016-08-23T07:33:44.110Z,320
2016-08-23T07:34:44.120Z,324
2016-08-23T07:35:44.124Z,320
2016-08-23T07:36:44.890Z,324
2016-08-23T07:37:44.202Z,324
2016-08-23T07:38:44.169Z,324
2016-08-23T07:39:44.197Z,324
2016-08-23T07:40:44.219Z,324
2016-08-23T07:41:44.244Z,328
2016-08-23T07:42:44.272Z,328
2016-08-23T07:43:44.295Z,332
2016-08-23T07:44:44.324Z,328
2016-08-23T07:45:44.354Z,332
2016-08-23T07:46:44.388Z,328
2016-08-23T07:47:44.512Z,336
2016-08-23T07:48:45.152Z,344
2016-08-23T07:49:44.454Z,352
2016-08-23T07:50:44.476Z,364
2016-08-23T07:51:44.500Z,372
2016-08-23T07:52:44.527Z,368
2016-08-23T07:53:44.765Z,372
2016-08-23T07:54:45.487Z,368
2016-08-23T07:55:44.781Z,360
2016-08-23T07:56:44.788Z,356
2016-08-23T07:57:44.794Z,352
2016-08-23T07:58:44.804Z,348
2016-08-23T07:59:44.811Z,348
2016-08-23T08:00:44.857Z,352
2016-08-23T08:01:44.858Z,352
2016-08-23T08:02:44.961Z,360
2016-08-23T08:03:44.879Z,376
2016-08-23T08:04:44.918Z,400
2016-08-23T08:05:45.568Z,408
2016-08-23T08:06:45.001Z,408
2016-08-23T08:07:44.961Z,396
2016-08-23T08:08:44.970Z,388
2016-08-23T08:09:44.974Z,380
2016-08-23T08:10:44.995Z,376
2016-08-23T08:11:45.717Z,368
2016-08-23T08:12:45.747Z,372
2016-08-23T08:13:45.070Z,372
2016-08-23T08:14:45.098Z,376
2016-08-23T08:15:45.123Z,384
2016-08-23T08:16:45.147Z,392
2016-08-23T08:17:45.177Z,404
2016-08-23T08:18:45.211Z,416
2016-08-23T08:19:45.224Z,424
2016-08-23T08:20:45.256Z,440
2016-08-23T08:21:45.308Z,452
2016-08-23T08:22:45.344Z,464
2016-08-23T08:23:45.328Z,476
2016-08-23T08:24:45.357Z,492
2016-08-23T08:25:45.380Z,504
2016-08-23T08:26:46.133Z,512
2016-08-23T08:27:45.443Z,516
2016-08-23T08:28:45.468Z,524
2016-08-23T08:29:45.494Z,520
2016-08-23T08:30:45.530Z,512
2016-08-23T08:31:46.966Z,500
2016-08-23T08:32:45.564Z,492
2016-08-23T08:33:45.593Z,476
2016-08-23T08:34:45.616Z,472
2016-08-23T08:35:45.643Z,460
2016-08-23T08:36:45.670Z,460
2016-08-23T08:37:46.402Z,472
2016-08-23T08:38:45.926Z,496
2016-08-23T08:39:45.747Z,512
2016-08-23T08:40:45.781Z,524
2016-08-23T08:41:45.802Z,536
2016-08-23T08:42:46.430Z,540
2016-08-23T08:43:45.854Z,544
2016-08-23T08:44:45.890Z,548
2016-08-23T08:45:45.905Z,560
2016-08-23T08:46:45.937Z,576
2016-08-23T08:47:46.174Z,588
2016-08-23T08:48:46.115Z,616
2016-08-23T08:49:46.019Z,652
2016-08-23T08:50:46.042Z,684
2016-08-23T08:51:46.137Z,708
2016-08-23T08:52:46.817Z,724
2016-08-23T08:53:46.126Z,728
2016-08-23T08:54:46.148Z,720
2016-08-23T08:55:46.192Z,704
2016-08-23T08:56:46.909Z,696
2016-08-23T08:57:46.371Z,680
2016-08-23T08:58:47.001Z,664
2016-08-23T08:59:46.405Z,648
2016-08-23T09:00:46.313Z,644
2016-08-23T09:01:46.496Z,652
2016-08-23T09:02:47.192Z,660
2016-08-23T09:03:46.401Z,680
2016-08-23T09:04:46.422Z,708
2016-08-23T09:05:46.451Z,732
2016-08-23T09:06:46.487Z,812
2016-08-23T09:07:46.618Z,864
2016-08-23T09:08:46.530Z,916
2016-08-23T09:09:46.561Z,984
2016-08-23T09:10:46.587Z,1060
2016-08-23T09:11:46.617Z,1120
2016-08-23T09:12:46.644Z,1140
2016-08-23T09:13:46.670Z,1156
2016-08-23T09:14:47.408Z,1164
2016-08-23T09:15:46.815Z,1172
2016-08-23T09:16:46.769Z,1172
2016-08-23T09:17:47.502Z,1148
2016-08-23T09:18:46.814Z,1136
2016-08-23T09:19:47.545Z,1128
2016-08-23T09:20:46.862Z,1124
2016-08-23T09:21:46.890Z,1088
2016-08-23T09:22:46.924Z,1028
2016-08-23T09:23:46.948Z,1000
2016-08-23T09:24:47.928Z,936
2016-08-23T09:25:47.752Z,888
2016-08-23T09:26:47.995Z,836
2016-08-23T09:27:47.066Z,864
2016-08-23T09:28:47.102Z,920
2016-08-23T09:29:47.112Z,792
2016-08-23T09:30:47.145Z,736
2016-08-23T09:31:47.174Z,808
2016-08-23T09:32:47.408Z,816
2016-08-23T09:33:47.565Z,744
2016-08-23T09:34:48.009Z,752
2016-08-23T09:35:47.402Z,840
2016-08-23T09:36:47.313Z,904
2016-08-23T09:37:48.047Z,896
2016-08-23T09:38:47.389Z,884
2016-08-23T09:39:47.567Z,828
2016-08-23T09:40:47.424Z,748
2016-08-23T09:41:47.507Z,864
2016-08-23T09:42:47.482Z,936
2016-08-23T09:43:47.509Z,832
2016-08-23T09:44:47.563Z,744
2016-08-23T09:45:47.570Z,868
2016-08-23T09:46:48.313Z,844
2016-08-23T09:47:47.626Z,908
2016-08-23T09:48:48.362Z,956
2016-08-23T09:49:47.679Z,968
2016-08-23T09:50:47.711Z,920
2016-08-23T09:51:48.029Z,928
2016-08-23T09:52:47.792Z,948
2016-08-23T09:53:47.803Z,932
2016-08-23T09:54:47.936Z,936
2016-08-23T09:55:48.559Z,920
2016-08-23T09:56:47.885Z,872
2016-08-23T09:57:48.662Z,896
2016-08-23T09:58:47.944Z,932
2016-08-23T09:59:47.970Z,940
2016-08-23T10:00:48.715Z,968
2016-08-23T10:01:48.030Z,964
2016-08-23T10:02:48.058Z,968
2016-08-23T10:03:48.085Z,1000
2016-08-23T10:04:48.118Z,1028
2016-08-23T10:05:48.141Z,1060
2016-08-23T10:06:48.268Z,1076
2016-08-23T10:07:48.197Z,1096
2016-08-23T10:08:48.232Z,1104
2016-08-23T10:09:48.263Z,1128
2016-08-23T10:10:48.297Z,1148
2016-08-23T10:11:48.324Z,1180
2016-08-23T10:12:48.349Z,1168
2016-08-23T10:13:48.386Z,1108
2016-08-23T10:14:48.416Z,1092
2016-08-23T10:15:49.392Z,1080
2016-08-23T10:16:48.586Z,1104
2016-08-23T10:17:48.544Z,1072
2016-08-23T10:18:48.531Z,1076
2016-08-23T10:19:48.558Z,1116
2016-08-23T10:20:48.584Z,1152
2016-08-23T10:21:48.821Z,1164
2016-08-23T10:22:48.766Z,1152
2016-08-23T10:23:48.679Z,1140
2016-08-23T10:24:48.826Z,1076
2016-08-23T10:25:49.449Z,1156
2016-08-23T10:26:49.672Z,1176
2016-08-23T10:27:48.806Z,1224
2016-08-23T10:28:48.827Z,1260
2016-08-23T10:29:48.853Z,1292
2016-08-23T10:30:49.089Z,1272
2016-08-23T10:31:48.919Z,1248
2016-08-23T10:32:50.709Z,1248
2016-08-23T10:33:48.976Z,1252
2016-08-23T10:34:49.019Z,1252
2016-08-23T10:35:49.041Z,1272
2016-08-23T10:36:49.065Z,1292
2016-08-23T10:37:49.842Z,1316
2016-08-23T10:38:49.130Z,1352
2016-08-23T10:39:49.156Z,1404
2016-08-23T10:40:49.191Z,1440
2016-08-23T10:41:49.926Z,1452
2016-08-23T10:42:49.264Z,1396
2016-08-23T10:43:49.480Z,1360
2016-08-23T10:44:49.322Z,1352
2016-08-23T10:45:49.343Z,1552
2016-08-23T10:46:50.077Z,1596
2016-08-23T10:47:49.409Z,1512
2016-08-23T10:48:49.437Z,1500
2016-08-23T10:49:49.468Z,1360
2016-08-23T10:50:49.492Z,1268
2016-08-23T10:51:49.525Z,1500
2016-08-23T10:52:49.555Z,1452
2016-08-23T10:53:49.586Z,1520
2016-08-23T10:54:49.615Z,1600
2016-08-23T10:55:49.854Z,1684
2016-08-23T10:56:49.896Z,1704
2016-08-23T10:57:49.708Z,1500
2016-08-23T10:58:49.738Z,1428
2016-08-23T10:59:49.786Z,1568
2016-08-23T11:00:49.803Z,1348
2016-08-23T11:01:49.842Z,1188
2016-08-23T11:02:49.870Z,1080
2016-08-23T11:03:49.902Z,1420
2016-08-23T11:04:49.937Z,1724
2016-08-23T11:05:49.958Z,1744
2016-08-23T11:06:49.998Z,1476
2016-08-23T11:07:50.021Z,1828
2016-08-23T11:08:50.122Z,1328
2016-08-23T11:09:50.085Z,1356
2016-08-23T11:10:50.120Z,1712
2016-08-23T11:11:50.161Z,1668
2016-08-23T11:12:50.184Z,1668
2016-08-23T11:13:50.211Z,1648
2016-08-23T11:14:50.362Z,1632
2016-08-23T11:15:50.366Z,1532
2016-08-23T11:16:50.394Z,1576
2016-08-23T11:17:50.427Z,1448
2016-08-23T11:18:50.581Z,1500
2016-08-23T11:19:50.592Z,1676
2016-08-23T11:20:50.636Z,1704
2016-08-23T11:21:50.651Z,1768
2016-08-23T11:22:50.648Z,1824
2016-08-23T11:23:50.659Z,2044
2016-08-23T11:24:50.670Z,2328
2016-08-23T11:25:50.683Z,2272
2016-08-23T11:26:50.723Z,2060
2016-08-23T11:27:50.756Z,2088
2016-08-23T11:28:50.757Z,2232
2016-08-23T11:29:50.779Z,2508
2016-08-23T11:30:50.771Z,2648
2016-08-23T11:31:50.788Z,2276
2016-08-23T11:32:50.821Z,2052
2016-08-23T11:33:50.851Z,1868
2016-08-23T11:34:50.888Z,1488
2016-08-23T11:35:50.919Z,1244
2016-08-23T11:36:50.946Z,1216
2016-08-23T11:37:51.694Z,1888
2016-08-23T11:38:51.036Z,1940
2016-08-23T11:39:51.047Z,1372
2016-08-23T11:40:51.087Z,1484
2016-08-23T11:41:51.824Z,1900
2016-08-23T11:42:51.159Z,2472
2016-08-23T11:43:51.182Z,3096
2016-08-23T11:44:51.213Z,3392
2016-08-23T11:45:51.248Z,3632
2016-08-23T11:46:51.281Z,3552
2016-08-23T11:47:51.310Z,3188
2016-08-23T11:48:51.346Z,3340
2016-08-23T11:49:51.382Z,2996
2016-08-23T11:50:51.410Z,3048
2016-08-23T11:51:51.451Z,3164
2016-08-23T11:52:51.476Z,3352
2016-08-23T11:53:52.219Z,3496
2016-08-23T11:54:51.542Z,3580
2016-08-23T11:55:51.581Z,3752
2016-08-23T11:56:51.613Z,3884
2016-08-23T11:57:51.643Z,3896
2016-08-23T11:58:51.680Z,3856
2016-08-23T11:59:51.715Z,3824
2016-08-23T12:00:51.744Z,3716
2016-08-23T12:01:51.781Z,3580
2016-08-23T12:02:52.831Z,3568
2016-08-23T12:03:51.844Z,3420
2016-08-23T12:04:51.880Z,3260
2016-08-23T12:05:51.911Z,3320
2016-08-23T12:06:51.948Z,3468
2016-08-23T12:07:51.985Z,3576
2016-08-23T12:08:52.018Z,3580
2016-08-23T12:09:52.966Z,3612
2016-08-23T12:10:52.082Z,3624
2016-08-23T12:11:52.120Z,3776
2016-08-23T12:12:52.208Z,3668
2016-08-23T12:13:52.182Z,3552
2016-08-23T12:14:52.223Z,3348
2016-08-23T12:15:52.982Z,3452
2016-08-23T12:16:52.295Z,3528
2016-08-23T12:17:52.432Z,3348
2016-08-23T12:18:52.448Z,3272
2016-08-23T12:19:52.482Z,3364
2016-08-23T12:20:52.646Z,3636
2016-08-23T12:21:52.662Z,3952
2016-08-23T12:22:52.659Z,3720
2016-08-23T12:23:52.666Z,3500
2016-08-23T12:24:52.720Z,3144
2016-08-23T12:25:53.424Z,2828
2016-08-23T12:26:52.818Z,2796
2016-08-23T12:27:52.731Z,2740
2016-08-23T12:28:52.795Z,2856
2016-08-23T12:29:52.820Z,2884
2016-08-23T12:30:53.517Z,2688
2016-08-23T12:31:52.833Z,2512
2016-08-23T12:32:52.835Z,2516
2016-08-23T12:33:52.870Z,2556
2016-08-23T12:34:52.910Z,2780
2016-08-23T12:35:52.942Z,3124
2016-08-23T12:36:52.972Z,3444
2016-08-23T12:37:53.011Z,3608
2016-08-23T12:38:53.100Z,3568
2016-08-23T12:39:53.793Z,3412
2016-08-23T12:40:53.112Z,3368
2016-08-23T12:41:53.154Z,3432
2016-08-23T12:42:53.190Z,3572
2016-08-23T12:43:53.218Z,3656
2016-08-23T12:44:53.956Z,3652
2016-08-23T12:45:53.287Z,3652
2016-08-23T12:46:53.324Z,3604
2016-08-23T12:47:53.363Z,3680
2016-08-23T12:48:53.387Z,3732
2016-08-23T12:49:53.424Z,3744
2016-08-23T12:50:53.460Z,3696
2016-08-23T12:51:54.209Z,3768
2016-08-23T12:52:53.533Z,3904
2016-08-23T12:53:53.565Z,4036
2016-08-23T12:54:54.309Z,4140
2016-08-23T12:55:53.639Z,4184
2016-08-23T12:56:53.687Z,4216
2016-08-23T12:57:53.702Z,4316
2016-08-23T12:58:53.736Z,4288
2016-08-23T12:59:53.790Z,4144
2016-08-23T13:00:53.810Z,4100
2016-08-23T13:01:54.551Z,4108
2016-08-23T13:02:53.879Z,4168
2016-08-23T13:03:53.914Z,4156
2016-08-23T13:04:53.952Z,4152
2016-08-23T13:05:53.983Z,4164
2016-08-23T13:06:54.025Z,3968
2016-08-23T13:07:54.057Z,3844
2016-08-23T13:08:54.098Z,3952
2016-08-23T13:09:54.123Z,3884
2016-08-23T13:10:54.866Z,3904
2016-08-23T13:11:54.208Z,3904
2016-08-23T13:12:54.233Z,4000
2016-08-23T13:13:54.268Z,4036
2016-08-23T13:14:54.299Z,3940
2016-08-23T13:15:54.337Z,3944
2016-08-23T13:16:54.378Z,3876
2016-08-23T13:17:54.410Z,3812
2016-08-23T13:18:54.441Z,3868
2016-08-23T13:19:54.478Z,3912
2016-08-23T13:20:54.578Z,3476
2016-08-23T13:21:54.550Z,2936
2016-08-23T13:22:54.636Z,3332
2016-08-23T13:23:55.335Z,3456
2016-08-23T13:24:54.660Z,3572
2016-08-23T13:25:54.706Z,3700
2016-08-23T13:26:54.723Z,3644
2016-08-23T13:27:55.463Z,3560
2016-08-23T13:28:54.794Z,3448
2016-08-23T13:29:54.835Z,3392
2016-08-23T13:30:55.574Z,3296
2016-08-23T13:31:54.906Z,3260
2016-08-23T13:32:54.957Z,3272
2016-08-23T13:33:54.972Z,3244
2016-08-23T13:34:55.716Z,3172
2016-08-23T13:35:55.046Z,3060
2016-08-23T13:36:55.085Z,3156
2016-08-23T13:37:55.121Z,3608
2016-08-23T13:38:55.984Z,3880
2016-08-23T13:39:55.180Z,3796
2016-08-23T13:40:55.218Z,3820
2016-08-23T13:41:56.001Z,3724
2016-08-23T13:42:55.299Z,3828
2016-08-23T13:43:55.332Z,3888
2016-08-23T13:44:55.366Z,3852
2016-08-23T13:45:55.398Z,3708
2016-08-23T13:46:55.435Z,3576
2016-08-23T13:47:55.469Z,3448
2016-08-23T13:48:55.511Z,3352
2016-08-23T13:49:55.545Z,3072
2016-08-23T13:50:55.584Z,2840
2016-08-23T13:51:55.614Z,2680
2016-08-23T13:52:55.650Z,2212
2016-08-23T13:53:55.690Z,2064
2016-08-23T13:54:55.718Z,2232
2016-08-23T13:55:55.752Z,2612
2016-08-23T13:56:55.795Z,2944